Time;durP1;ratioP1;P1;durP2;ratioP2;P2;SDS_P1;SDS_P2;PMS_P1;PMS_P2;Temp;Humidity;BMP_temperature;BMP_pressure;BME280_temperature;BME280_humidity;BME280_pressure;Samples;Min_cycle;Max_cycle;Signal;HPM_P1;HPM_P2
2024/04/08 00:01:34;;;;;;;1.75;1.27;;;;;;;9.65;71.83;99960.69;5536328;26;20009;-64
2024/04/08 00:03:59;;;;;;;0.43;0.43;;;;;;;9.60;72.20;99970.25;5536447;26;20019;-64
2024/04/08 00:06:24;;;;;;;4.50;2.38;;;;;;;9.58;72.33;99961.66;5540131;26;20018;-65
2024/04/08 00:08:50;;;;;;;5.78;2.13;;;;;;;9.57;72.03;99954.72;5539654;26;19998;-63
2024/04/08 00:11:15;;;;;;;1.48;0.73;;;;;;;9.65;72.38;99968.47;5507300;26;20450;-64
2024/04/08 00:13:40;;;;;;;2.13;0.95;;;;;;;9.67;72.46;99961.53;5539816;26;20008;-65
2024/04/08 00:16:06;;;;;;;2.00;1.15;;;;;;;9.69;72.67;99971.03;5539749;26;20481;-65
2024/04/08 00:18:32;;;;;;;2.70;1.27;;;;;;;9.67;72.81;99968.44;5539446;26;20012;-64
2024/04/08 00:21:03;;;;;;;1.30;0.77;;;;;;;9.69;72.83;99969.31;5539447;26;20030;-64
2024/04/08 00:23:28;;;;;;;4.35;1.40;;;;;;;9.75;72.69;99973.53;5539625;26;20030;-64
2024/04/08 00:25:54;;;;;;;5.70;1.75;;;;;;;9.81;72.83;99976.06;5539953;26;19997;-64
2024/04/08 00:28:19;;;;;;;1.55;0.73;;;;;;;9.85;72.77;99974.28;5539500;26;19998;-65
2024/04/08 00:30:45;;;;;;;17.85;1.10;;;;;;;9.88;72.96;99974.25;5540116;26;20398;-64
2024/04/08 00:33:10;;;;;;;1.10;0.70;;;;;;;9.94;72.57;99976.75;5539843;26;19998;-64
2024/04/08 00:35:35;;;;;;;0.35;0.35;;;;;;;9.97;72.85;99973.28;5539690;26;20008;-65
2024/04/08 00:38:01;;;;;;;2.60;1.25;;;;;;;10.02;73.08;99977.53;5539567;26;20002;-64
2024/04/08 00:40:34;;;;;;;4.25;1.60;;;;;;;10.05;73.28;99984.41;5507058;26;19993;-63
2024/04/08 00:43:00;;;;;;;0.68;0.60;;;;;;;10.10;73.75;99990.41;5539491;26;20013;-65
2024/04/08 00:45:25;;;;;;;0.30;0.30;;;;;;;10.15;73.90;99956.63;5539490;26;20078;-64
2024/04/08 00:47:51;;;;;;;0.95;0.90;;;;;;;10.23;74.31;99959.09;5539549;26;20001;-64
2024/04/08 00:50:16;;;;;;;1.38;0.60;;;;;;;10.28;74.19;99952.97;5539610;26;20026;-65
2024/04/08 00:52:42;;;;;;;1.40;1.05;;;;;;;10.34;74.05;99972.78;5539306;26;20429;-64
2024/04/08 00:55:07;;;;;;;0.60;0.60;;;;;;;10.35;74.38;99961.50;5538944;26;20008;-66
2024/04/08 00:57:32;;;;;;;2.30;1.05;;;;;;;10.40;74.22;99964.03;5506796;26;20008;-65
2024/04/08 00:59:58;;;;;;;1.83;1.13;;;;;;;10.45;74.12;99956.19;5539285;26;20001;-64
2024/04/08 01:02:24;;;;;;;3.83;0.88;;;;;;;10.46;73.94;99965.69;5539145;26;20005;-65
2024/04/08 01:04:50;;;;;;;0.40;0.40;;;;;;;10.43;74.21;99955.38;5539240;26;20027;-63
2024/04/08 01:07:15;;;;;;;4.47;0.70;;;;;;;10.37;74.10;99946.78;5539181;26;19998;-64
2024/04/08 01:09:41;;;;;;;8.40;1.20;;;;;;;10.39;74.67;99960.59;5506328;26;20053;-63
2024/04/08 01:12:06;;;;;;;1.15;0.98;;;;;;;10.43;74.71;99957.97;5538216;26;20023;-64
2024/04/08 01:14:33;;;;;;;0.40;0.40;;;;;;;10.43;74.58;99944.97;5505446;26;20004;-63
2024/04/08 01:16:59;;;;;;;0.75;0.75;;;;;;;10.45;74.30;99935.44;5475917;26;19997;-63
2024/04/08 01:19:25;;;;;;;0.70;0.70;;;;;;;10.40;74.48;99931.16;5538620;26;20013;-63
2024/04/08 01:21:51;;;;;;;1.38;1.20;;;;;;;10.44;74.34;99931.13;5539132;26;20004;-63
2024/04/08 01:24:16;;;;;;;1.85;1.45;;;;;;;10.50;74.18;99946.63;5538872;26;20022;-65
2024/04/08 01:26:41;;;;;;;0.40;0.40;;;;;;;10.51;74.13;99950.94;5539085;26;20050;-64
2024/04/08 01:29:07;;;;;;;2.65;0.88;;;;;;;10.51;74.11;99945.75;5538649;26;20013;-64
2024/04/08 01:31:33;;;;;;;3.63;1.27;;;;;;;10.45;74.25;99938.88;5539220;26;20462;-63
2024/04/08 01:33:58;;;;;;;21.08;1.27;;;;;;;10.40;74.45;99920.78;5505821;26;20001;-64
2024/04/08 01:36:24;;;;;;;3.90;1.00;;;;;;;10.38;74.69;99947.66;5539019;26;20016;-65
2024/04/08 01:38:49;;;;;;;0.80;0.80;;;;;;;10.39;74.51;99938.97;5538538;26;20016;-64
2024/04/08 01:41:14;;;;;;;1.55;0.77;;;;;;;10.39;74.30;99946.75;5506054;26;20046;-64
2024/04/08 01:43:40;;;;;;;5.78;1.10;;;;;;;10.37;74.56;99946.78;5538270;26;20009;-66
2024/04/08 01:46:06;;;;;;;0.82;0.80;;;;;;;10.29;74.49;99933.94;5506353;26;20041;-64
2024/04/08 01:48:31;;;;;;;0.60;0.60;;;;;;;10.34;74.81;99946.81;5538558;26;20016;-65
2024/04/08 01:50:57;;;;;;;3.90;1.25;;;;;;;10.25;75.06;99929.66;5538736;26;20025;-65
2024/04/08 01:53:22;;;;;;;0.75;0.73;;;;;;;10.19;75.04;99934.94;5538470;26;20051;-64
2024/04/08 01:55:47;;;;;;;9.02;1.75;;;;;;;10.14;75.41;99936.75;5505970;26;19998;-64
2024/04/08 01:58:13;;;;;;;1.30;1.05;;;;;;;10.11;75.53;99940.22;5538065;26;20012;-64
2024/04/08 02:00:38;;;;;;;3.78;1.60;;;;;;;10.06;75.41;99944.63;5538472;26;20006;-63
2024/04/08 02:03:04;;;;;;;4.43;1.25;;;;;;;10.01;75.68;99954.22;5538288;26;20523;-65
2024/04/08 02:05:29;;;;;;;2.00;0.75;;;;;;;9.97;75.78;99947.38;5538325;26;20069;-65
2024/04/08 02:07:54;;;;;;;0.85;0.85;;;;;;;9.87;76.07;99947.47;5505783;26;20055;-64
2024/04/08 02:10:20;;;;;;;4.78;1.83;;;;;;;9.88;76.04;99958.69;5505472;26;20029;-64
2024/04/08 02:12:47;;;;;;;0.47;0.43;;;;;;;9.86;76.72;99961.31;5537976;26;20016;-64
2024/04/08 02:15:13;;;;;;;0.52;0.50;;;;;;;9.76;76.80;99941.56;5537886;26;20361;-63
2024/04/08 02:17:38;;;;;;;3.22;1.27;;;;;;;9.67;77.37;99951.19;5538035;26;20040;-65
2024/04/08 02:20:06;;;;;;;8.40;1.23;;;;;;;9.67;78.04;99951.19;5537618;26;20012;-65
2024/04/08 02:22:32;;;;;;;1.20;1.10;;;;;;;9.62;78.08;99957.28;5505387;26;19993;-66
2024/04/08 02:24:57;;;;;;;0.98;0.93;;;;;;;9.56;78.40;99937.47;5505091;26;20313;-63
2024/04/08 02:27:22;;;;;;;1.15;1.05;;;;;;;9.55;78.32;99946.13;5504296;26;20050;-64
2024/04/08 02:29:48;;;;;;;0.50;0.50;;;;;;;9.55;78.42;99956.50;5537656;26;20102;-65
2024/04/08 02:32:13;;;;;;;1.38;1.27;;;;;;;9.52;78.45;99956.53;5505272;26;20008;-65
2024/04/08 02:34:38;;;;;;;8.90;0.95;;;;;;;9.48;78.83;99957.44;5537717;26;20541;-64
2024/04/08 02:37:04;;;;;;;2.45;2.08;;;;;;;9.46;79.29;99951.41;5537563;26;20002;-63
2024/04/08 02:39:29;;;;;;;3.85;1.08;;;;;;;9.45;79.23;99952.28;5537609;26;20433;-64
2024/04/08 02:41:55;;;;;;;14.13;2.05;;;;;;;9.44;79.53;99950.59;5537354;26;20016;-65
2024/04/08 02:44:21;;;;;;;0.55;0.55;;;;;;;9.42;79.54;99946.25;5537015;26;20006;-64
2024/04/08 02:46:46;;;;;;;8.25;1.92;;;;;;;9.41;79.96;99939.38;5537480;26;20014;-65
2024/04/08 02:49:12;;;;;;;4.03;1.75;;;;;;;9.40;80.18;99942.84;5537601;26;19997;-65
2024/04/08 02:51:37;;;;;;;2.22;0.88;;;;;;;9.36;80.00;99933.38;5537309;26;20006;-65
2024/04/08 02:54:02;;;;;;;1.63;1.13;;;;;;;9.32;80.33;99939.47;5504327;26;20005;-65
2024/04/08 02:56:28;;;;;;;1.58;1.02;;;;;;;9.34;79.93;99932.56;5537015;26;19997;-64
2024/04/08 02:58:54;;;;;;;4.97;1.38;;;;;;;9.35;79.96;99948.94;5537254;26;20049;-65
2024/04/08 03:01:19;;;;;;;1.73;1.63;;;;;;;9.34;80.04;99924.78;5537227;26;20116;-64
2024/04/08 03:03:45;;;;;;;2.10;1.20;;;;;;;9.29;80.02;99926.56;5536989;26;20008;-64
2024/04/08 03:06:12;;;;;;;8.75;1.95;;;;;;;9.33;79.60;99923.03;5537606;26;20050;-64
2024/04/08 03:08:38;;;;;;;1.50;1.05;;;;;;;9.35;79.60;99918.72;5537019;26;20005;-64
2024/04/08 03:11:04;;;;;;;0.60;0.60;;;;;;;9.37;79.49;99931.66;5536978;26;19998;-64
2024/04/08 03:13:29;;;;;;;1.30;0.80;;;;;;;9.36;79.23;99930.78;5504215;26;20050;-63
2024/04/08 03:15:55;;;;;;;4.65;1.60;;;;;;;9.37;78.96;99922.16;5537067;26;20013;-64
2024/04/08 03:18:21;;;;;;;12.35;1.08;;;;;;;9.38;78.57;99923.00;5536917;26;20041;-64
2024/04/08 03:20:57;;;;;;;1.00;0.90;;;;;;;9.35;78.95;99916.13;5537008;26;19994;-65
2024/04/08 03:23:23;;;;;;;2.90;0.98;;;;;;;9.40;78.46;99906.56;5536882;26;20001;-64
2024/04/08 03:26:03;;;;;;;1.27;1.17;;;;;;;9.41;78.26;99913.47;5537017;26;20016;-63
2024/04/08 03:28:29;;;;;;;2.55;1.05;;;;;;;9.46;78.07;99904.75;5536487;26;19998;-65
2024/04/08 03:30:55;;;;;;;2.35;1.35;;;;;;;9.47;78.15;99907.38;5536882;26;20009;-64
2024/04/08 03:33:21;;;;;;;5.80;2.28;;;;;;;9.47;77.98;99907.38;5536657;26;20009;-64
2024/04/08 03:35:48;;;;;;;2.60;1.40;;;;;;;9.48;78.00;99908.19;5503711;26;19993;-65
2024/04/08 03:38:14;;;;;;;2.30;1.45;;;;;;;9.49;78.10;99909.94;5566821;25;20009;-64
2024/04/08 03:40:40;;;;;;;10.48;1.02;;;;;;;9.54;78.27;99914.19;5540366;26;20359;-64
2024/04/08 03:43:06;;;;;;;3.80;1.13;;;;;;;9.54;78.02;99908.13;5540198;26;20003;-64
2024/04/08 03:45:32;;;;;;;5.05;1.55;;;;;;;9.51;78.17;99908.16;5540015;26;19997;-65
2024/04/08 03:47:57;;;;;;;0.80;0.80;;;;;;;9.50;78.01;99914.22;5540301;26;19997;-65
2024/04/08 03:50:27;;;;;;;1.45;0.90;;;;;;;9.51;77.85;99906.44;5540305;26;20012;-64
2024/04/08 03:52:53;;;;;;;0.60;0.60;;;;;;;9.49;77.75;99904.75;5539921;26;20001;-64
2024/04/08 03:55:23;;;;;;;3.47;1.65;;;;;;;9.47;78.03;99902.19;5540009;26;20034;-65
2024/04/08 03:57:48;;;;;;;2.15;1.98;;;;;;;9.51;77.75;99908.16;5539863;26;20042;-63
2024/04/08 04:00:14;;;;;;;1.95;0.90;;;;;;;9.46;77.74;99908.22;5507350;26;20005;-64
2024/04/08 04:02:40;;;;;;;4.40;2.22;;;;;;;9.39;77.91;99906.59;5507287;26;20246;-65
2024/04/08 04:05:06;;;;;;;5.63;1.40;;;;;;;9.36;77.86;99915.22;5539795;26;20021;-64
2024/04/08 04:07:32;;;;;;;2.92;1.35;;;;;;;9.32;78.06;99923.94;5539993;26;20009;-64
2024/04/08 04:10:04;;;;;;;1.45;0.85;;;;;;;9.27;78.05;99926.56;5540074;26;20037;-64
2024/04/08 04:12:30;;;;;;;3.20;1.42;;;;;;;9.18;77.69;99919.75;5539732;26;20382;-64
2024/04/08 04:14:55;;;;;;;13.32;1.27;;;;;;;9.15;78.21;99912.00;5539820;26;20013;-64
2024/04/08 04:17:20;;;;;;;2.95;1.88;;;;;;;9.11;78.12;99910.34;5539650;26;19997;-64
2024/04/08 04:19:46;;;;;;;2.30;1.33;;;;;;;9.09;78.19;99919.00;5507462;26;20001;-64
2024/04/08 04:22:11;;;;;;;0.75;0.60;;;;;;;9.02;78.60;99910.44;5540311;26;20037;-65
2024/04/08 04:24:36;;;;;;;0.63;0.63;;;;;;;9.04;78.76;99919.88;5539587;26;19997;-63
2024/04/08 04:27:02;;;;;;;0.70;0.70;;;;;;;9.06;79.13;99922.47;5539975;26;19998;-65
2024/04/08 04:29:27;;;;;;;1.23;1.13;;;;;;;9.03;79.56;99913.00;5539780;26;20090;-63
2024/04/08 04:31:52;;;;;;;2.58;1.75;;;;;;;9.07;79.80;99913.84;5539786;26;20077;-63
2024/04/08 04:34:18;;;;;;;4.43;2.05;;;;;;;9.10;79.58;99912.94;5539396;26;20046;-64
2024/04/08 04:36:45;;;;;;;0.50;0.50;;;;;;;9.12;79.51;99914.63;5538955;26;20127;-64
2024/04/08 04:39:10;;;;;;;2.85;1.25;;;;;;;9.15;79.71;99913.75;5539404;26;20002;-64
2024/04/08 04:41:35;;;;;;;2.10;1.10;;;;;;;9.26;79.54;99917.09;5476663;26;20008;-65
2024/04/08 04:44:01;;;;;;;3.25;1.65;;;;;;;9.37;79.31;99896.25;5539553;26;20001;-64
2024/04/08 04:46:26;;;;;;;2.03;1.08;;;;;;;9.55;79.14;99912.44;5540068;26;20009;-64
2024/04/08 04:48:51;;;;;;;4.85;1.48;;;;;;;9.72;78.85;99913.97;5539644;26;19998;-64
2024/04/08 04:51:18;;;;;;;3.50;1.98;;;;;;;9.83;78.15;99906.91;5538838;26;20007;-64
2024/04/08 04:53:43;;;;;;;1.85;0.65;;;;;;;9.99;78.02;99904.97;5506234;26;19993;-64
2024/04/08 04:56:08;;;;;;;12.35;2.05;;;;;;;10.04;77.55;99902.31;5539254;26;20001;-64
2024/04/08 04:58:34;;;;;;;2.58;1.70;;;;;;;10.14;77.21;99908.22;5539225;26;20033;-64
2024/04/08 05:00:59;;;;;;;4.72;1.05;;;;;;;10.23;77.32;99902.88;5537613;26;19997;-64
2024/04/08 05:03:24;;;;;;;5.47;2.03;;;;;;;10.33;76.51;99905.34;5538795;26;20344;-63
2024/04/08 05:05:54;;;;;;;1.67;0.82;;;;;;;10.31;76.30;99891.53;5539467;26;20337;-65
2024/04/08 05:08:19;;;;;;;1.38;0.85;;;;;;;10.53;76.09;99905.03;5539677;26;20012;-65
2024/04/08 05:10:45;;;;;;;11.38;1.48;;;;;;;10.85;75.23;99911.44;5538428;26;20030;-64
2024/04/08 05:13:10;;;;;;;1.05;1.05;;;;;;;11.25;75.66;99912.44;5539139;26;20001;-64
2024/04/08 05:15:35;;;;;;;1.25;1.15;;;;;;;11.57;74.19;99915.28;5539209;26;20116;-64
2024/04/08 05:18:01;;;;;;;8.23;1.30;;;;;;;11.89;72.89;99913.75;5539053;26;19998;-64
2024/04/08 05:20:29;;;;;;;1.80;1.20;;;;;;;12.29;72.55;99931.13;5539008;26;19998;-63
2024/04/08 05:22:55;;;;;;;5.70;1.45;;;;;;;12.50;70.16;99920.22;5538881;26;20012;-64
2024/04/08 05:25:20;;;;;;;1.65;1.38;;;;;;;12.71;69.55;99914.50;5538930;26;20334;-65
2024/04/08 05:27:45;;;;;;;4.75;1.65;;;;;;;12.91;67.75;99920.97;5538953;26;20010;-64
2024/04/08 05:30:11;;;;;;;4.63;1.55;;;;;;;13.23;68.71;99916.63;5506083;26;20009;-64
2024/04/08 05:32:36;;;;;;;7.95;1.00;;;;;;;13.54;68.34;99923.63;5538599;26;19997;-64
2024/04/08 05:35:02;;;;;;;1.73;1.15;;;;;;;13.79;67.14;99927.25;5538293;26;19994;-64
2024/04/08 05:37:27;;;;;;;1.30;0.52;;;;;;;13.82;64.35;99925.44;5538354;26;20001;-64
2024/04/08 05:39:52;;;;;;;1.25;0.85;;;;;;;14.03;64.71;99927.44;5538389;26;20050;-63
2024/04/08 05:42:18;;;;;;;6.65;1.20;;;;;;;14.21;63.86;99920.78;5538807;26;20013;-64
2024/04/08 05:44:43;;;;;;;1.30;1.05;;;;;;;14.53;63.77;99913.69;5505690;26;19997;-64
2024/04/08 05:47:08;;;;;;;4.22;1.10;;;;;;;14.54;61.22;99915.38;5538817;26;19997;-65
2024/04/08 05:49:34;;;;;;;5.05;1.05;;;;;;;14.56;60.86;99920.56;5538668;26;20025;-65
2024/04/08 05:51:59;;;;;;;7.35;1.60;;;;;;;14.60;61.33;99924.78;5505958;26;19997;-64
2024/04/08 05:54:26;;;;;;;6.78;1.42;;;;;;;14.44;60.03;99924.44;5538175;26;20012;-64
2024/04/08 05:56:52;;;;;;;2.78;1.48;;;;;;;14.15;60.67;99931.44;5538308;26;19997;-64
2024/04/08 05:59:17;;;;;;;2.00;0.98;;;;;;;14.07;61.64;99935.16;5537832;26;19997;-64
2024/04/08 06:01:43;;;;;;;7.15;1.30;;;;;;;14.21;61.84;99931.22;5536077;26;20004;-64
2024/04/08 06:04:08;;;;;;;5.75;1.60;;;;;;;14.46;61.91;99935.66;5537740;26;19997;-65
2024/04/08 06:06:33;;;;;;;7.80;1.33;;;;;;;14.72;61.99;99933.97;5538531;26;19997;-62
2024/04/08 06:09:05;;;;;;;1.10;0.80;;;;;;;14.98;61.42;99937.50;5538247;26;19998;-62
2024/04/08 06:11:31;;;;;;;4.50;1.67;;;;;;;15.33;60.73;99938.03;5538207;26;20005;-63
2024/04/08 06:13:56;;;;;;;6.80;1.33;;;;;;;15.64;59.15;99937.81;5537802;26;20013;-63
2024/04/08 06:16:21;;;;;;;3.65;1.55;;;;;;;15.86;58.16;99941.31;5538131;26;20013;-63
2024/04/08 06:18:47;;;;;;;2.80;0.93;;;;;;;15.93;57.27;99946.31;5537785;26;19997;-62
2024/04/08 06:21:12;;;;;;;3.47;1.60;;;;;;;15.95;56.57;99949.72;5538133;26;20478;-63
2024/04/08 06:23:38;;;;;;;8.75;1.42;;;;;;;16.11;56.67;99947.41;5538089;26;20002;-63
2024/04/08 06:26:04;;;;;;;4.28;0.88;;;;;;;16.12;56.56;99950.88;5538355;26;20565;-63
2024/04/08 06:28:30;;;;;;;2.05;1.73;;;;;;;16.27;57.02;99945.03;5538167;26;20029;-63
2024/04/08 06:30:56;;;;;;;4.00;0.98;;;;;;;16.23;56.33;99938.19;5538073;26;20101;-62
2024/04/08 06:33:21;;;;;;;3.10;1.27;;;;;;;16.32;56.65;99942.22;5505662;26;20009;-63
2024/04/08 06:35:47;;;;;;;3.53;1.83;;;;;;;16.44;56.65;99946.09;5538087;26;20016;-63
2024/04/08 06:38:13;;;;;;;4.07;1.65;;;;;;;16.67;56.13;99936.47;5505548;26;20008;-63
2024/04/08 06:40:42;;;;;;;2.10;1.23;;;;;;;16.68;55.74;99944.25;5538082;26;19997;-62
2024/04/08 06:43:08;;;;;;;3.40;1.67;;;;;;;16.77;54.87;99944.81;5538235;26;19997;-62
2024/04/08 06:45:33;;;;;;;2.30;1.27;;;;;;;16.91;53.89;99954.69;5538156;26;20067;-62
2024/04/08 06:47:59;;;;;;;2.72;1.23;;;;;;;17.01;53.81;99956.03;5538076;26;20017;-62
2024/04/08 06:50:24;;;;;;;1.60;0.98;;;;;;;17.05;53.93;99954.09;5533931;26;19993;-63
2024/04/08 06:52:49;;;;;;;3.28;1.15;;;;;;;16.98;54.06;99954.38;5502208;26;19997;-63
2024/04/08 06:55:16;;;;;;;11.75;1.98;;;;;;;16.90;53.96;99950.38;5536289;26;20093;-63
2024/04/08 06:57:42;;;;;;;2.90;1.20;;;;;;;16.97;54.30;99951.81;5504276;26;20009;-61
2024/04/08 07:00:09;;;;;;;1.52;0.93;;;;;;;17.14;54.18;99963.41;5537570;26;20027;-63
2024/04/08 07:02:35;;;;;;;0.82;0.80;;;;;;;17.20;53.64;99955.25;5537926;26;19997;-63
2024/04/08 07:05:01;;;;;;;1.38;0.80;;;;;;;17.20;53.39;99978.88;5567009;25;19998;-63
2024/04/08 07:07:27;;;;;;;2.88;1.25;;;;;;;17.09;52.90;99979.31;5537728;26;20086;-62
2024/04/08 07:09:52;;;;;;;3.92;1.52;;;;;;;17.12;52.79;99978.34;5537843;26;20347;-63
2024/04/08 07:12:18;;;;;;;9.13;1.58;;;;;;;17.04;53.20;99966.38;5537680;26;20425;-62
2024/04/08 07:14:43;;;;;;;3.30;1.40;;;;;;;17.20;52.98;99971.81;5536789;26;19998;-62
2024/04/08 07:17:08;;;;;;;1.77;1.08;;;;;;;17.41;53.08;99992.81;5537062;26;20414;-62
2024/04/08 07:19:34;;;;;;;3.75;1.80;;;;;;;17.64;52.86;99979.56;5537673;26;19998;-63
2024/04/08 07:22:00;;;;;;;2.92;1.40;;;;;;;17.76;52.23;99988.69;5505246;26;20012;-62
2024/04/08 07:24:25;;;;;;;2.00;1.08;;;;;;;17.91;51.90;99989.75;5504645;26;20004;-63
2024/04/08 07:26:50;;;;;;;1.80;1.00;;;;;;;17.96;51.29;99990.38;5504859;26;20017;-62
2024/04/08 07:29:16;;;;;;;1.25;0.98;;;;;;;18.01;51.71;99991.03;5537234;26;19997;-62
2024/04/08 07:31:42;;;;;;;3.45;1.42;;;;;;;17.83;50.35;99997.97;5537506;26;20352;-63
2024/04/08 07:34:07;;;;;;;2.00;1.33;;;;;;;17.68;50.80;99989.03;5537205;26;20008;-63
2024/04/08 07:36:33;;;;;;;1.65;1.27;;;;;;;17.57;50.73;99979.03;5537176;26;20022;-63
2024/04/08 07:38:58;;;;;;;1.58;0.85;;;;;;;17.30;50.66;99988.03;5536859;26;19998;-63
2024/04/08 07:41:23;;;;;;;2.50;1.50;;;;;;;17.15;51.98;99986.06;5537300;26;19997;-62
2024/04/08 07:43:49;;;;;;;2.65;1.50;;;;;;;17.30;51.29;99993.28;5537157;26;20001;-62
2024/04/08 07:46:15;;;;;;;2.53;1.73;;;;;;;17.44;51.01;99997.09;5537212;26;20005;-62
2024/04/08 07:48:40;;;;;;;3.80;1.35;;;;;;;17.42;51.31;100001.53;5536957;26;20012;-63
2024/04/08 07:51:06;;;;;;;1.70;0.98;;;;;;;17.63;51.01;99997.13;5536740;26;20339;-63
2024/04/08 07:53:32;;;;;;;1.77;1.17;;;;;;;17.77;50.87;100001.75;5536912;26;19994;-63
2024/04/08 07:55:59;;;;;;;3.35;1.30;;;;;;;17.90;49.74;100015.19;5536783;26;20012;-62
2024/04/08 07:58:26;;;;;;;2.83;1.38;;;;;;;17.99;49.48;100007.81;5536702;26;20001;-63
2024/04/08 08:01:00;;;;;;;2.30;1.70;;;;;;;18.15;49.50;100015.81;5536567;26;20001;-63
2024/04/08 08:03:26;;;;;;;2.45;1.60;;;;;;;18.39;50.04;100012.97;5536647;26;20001;-63
2024/04/08 08:05:53;;;;;;;3.42;1.80;;;;;;;18.70;47.22;100001.84;5536407;26;20034;-62
2024/04/08 08:08:18;;;;;;;6.13;1.45;;;;;;;18.46;47.68;100009.13;5536836;26;20005;-62
2024/04/08 08:10:45;;;;;;;2.45;1.20;;;;;;;18.51;48.52;100017.66;5536610;26;20398;-63
2024/04/08 08:13:10;;;;;;;1.23;0.90;;;;;;;18.70;48.67;100006.25;5536347;26;20012;-63
2024/04/08 08:15:36;;;;;;;4.53;1.45;;;;;;;18.69;46.59;100010.66;5503435;26;20073;-63
2024/04/08 08:18:01;;;;;;;3.17;1.27;;;;;;;18.56;47.28;100023.53;5535998;26;20012;-63
2024/04/08 08:20:27;;;;;;;1.90;0.82;;;;;;;18.43;46.82;100020.66;5536575;26;20349;-64
2024/04/08 08:22:56;;;;;;;2.67;1.33;;;;;;;18.29;47.78;100021.28;5536517;26;20008;-62
2024/04/08 08:25:25;;;;;;;7.40;1.38;;;;;;;18.36;47.47;100024.50;5536997;26;20050;-62
2024/04/08 08:27:51;;;;;;;3.28;1.00;;;;;;;18.73;47.52;100028.91;5540438;26;20009;-63
2024/04/08 08:30:16;;;;;;;2.97;1.58;;;;;;;18.92;46.07;100034.09;5540080;26;20024;-62
2024/04/08 08:32:43;;;;;;;1.10;1.00;;;;;;;19.00;46.01;100020.56;5540169;26;20001;-63
2024/04/08 08:35:08;;;;;;;3.72;1.58;;;;;;;18.96;45.56;100027.78;5539545;26;20005;-63
2024/04/08 08:37:33;;;;;;;2.05;1.27;;;;;;;18.82;45.91;100015.28;5539936;26;19998;-62
2024/04/08 08:39:59;;;;;;;2.85;1.20;;;;;;;18.65;45.97;100035.38;5540020;26;20002;-63
2024/04/08 08:42:29;;;;;;;8.45;1.45;;;;;;;18.80;46.63;100052.19;5539814;26;20002;-64
2024/04/08 08:44:56;;;;;;;2.80;1.27;;;;;;;18.85;45.93;100040.59;5539523;26;20012;-63
2024/04/08 08:47:22;;;;;;;3.75;1.35;;;;;;;19.04;46.13;100051.06;5539759;26;20001;-63
2024/04/08 08:49:55;;;;;;;3.95;1.15;;;;;;;19.22;45.30;100046.69;5539471;26;19998;-62
2024/04/08 08:52:21;;;;;;;2.10;1.08;;;;;;;19.32;45.99;100047.94;5539824;26;20413;-63
2024/04/08 08:54:50;;;;;;;1.65;1.10;;;;;;;19.75;45.39;100038.72;5539407;26;19997;-63
2024/04/08 08:57:15;;;;;;;2.05;1.35;;;;;;;20.10;45.90;100045.69;5506863;26;19994;-64
2024/04/08 08:59:42;;;;;;;2.28;1.15;;;;;;;20.59;44.26;100046.53;5506858;26;20013;-64
2024/04/08 09:02:11;;;;;;;1.42;1.00;;;;;;;20.70;42.76;100038.03;5539455;26;20029;-64
2024/04/08 09:04:36;;;;;;;2.65;1.25;;;;;;;20.72;41.82;100051.97;5539137;26;19997;-64
2024/04/08 09:07:02;;;;;;;3.35;1.58;;;;;;;20.70;42.46;100042.44;5506519;26;20094;-63
2024/04/08 09:09:27;;;;;;;3.90;1.42;;;;;;;20.95;43.33;100044.56;5539362;26;20008;-64
2024/04/08 09:11:53;;;;;;;2.92;1.33;;;;;;;21.29;41.69;100047.00;5538908;26;20073;-64
2024/04/08 09:14:18;;;;;;;2.42;1.38;;;;;;;21.17;41.47;100052.06;5539139;26;19997;-64
2024/04/08 09:16:48;;;;;;;4.90;1.67;;;;;;;20.98;41.74;100046.16;5506786;26;20477;-63
2024/04/08 09:19:14;;;;;;;2.55;1.08;;;;;;;20.99;41.88;100058.44;5506251;26;20008;-64
2024/04/08 09:21:39;;;;;;;3.35;1.33;;;;;;;21.00;40.76;100058.34;5539273;26;19997;-64
2024/04/08 09:24:06;;;;;;;3.20;1.40;;;;;;;20.80;40.65;100054.16;5539082;26;19994;-64
2024/04/08 09:26:32;;;;;;;2.85;1.48;;;;;;;20.59;41.57;100062.34;5539171;26;20016;-63
2024/04/08 09:28:59;;;;;;;1.70;0.93;;;;;;;20.61;42.03;100064.91;5538842;26;20013;-63
2024/04/08 09:31:25;;;;;;;7.63;1.30;;;;;;;20.77;41.56;100063.09;5506668;26;20361;-64
2024/04/08 09:33:51;;;;;;;3.75;1.42;;;;;;;21.01;41.46;100067.94;5539058;26;20009;-63
2024/04/08 09:36:17;;;;;;;2.25;1.13;;;;;;;21.45;41.25;100072.47;5538510;26;20005;-64
2024/04/08 09:38:44;;;;;;;3.00;1.25;;;;;;;21.75;41.04;100066.28;5539268;26;20005;-63
2024/04/08 09:41:12;;;;;;;3.83;1.67;;;;;;;22.03;41.10;100065.47;5506330;26;19994;-64
2024/04/08 09:43:39;;;;;;;1.52;0.80;;;;;;;22.56;40.37;100076.34;5539039;26;20021;-64
2024/04/08 09:46:05;;;;;;;3.40;1.38;;;;;;;22.76;39.89;100083.84;5538518;26;20077;-63
2024/04/08 09:48:32;;;;;;;3.95;1.02;;;;;;;22.81;38.22;100082.69;5538969;26;20434;-63
2024/04/08 09:51:00;;;;;;;4.93;1.30;;;;;;;22.58;38.03;100082.34;5538611;26;20055;-63
2024/04/08 09:53:30;;;;;;;2.67;1.60;;;;;;;22.57;38.29;100092.09;5538605;26;19997;-63
2024/04/08 09:56:02;;;;;;;11.68;1.55;;;;;;;22.55;38.80;100086.06;5538728;26;20001;-63
2024/04/08 09:58:35;;;;;;;2.95;1.27;;;;;;;22.75;37.87;100078.63;5506219;26;20012;-63
2024/04/08 10:01:05;;;;;;;3.63;1.52;;;;;;;22.75;37.88;100082.13;5507471;26;20012;-64
2024/04/08 10:03:42;;;;;;;2.80;1.20;;;;;;;22.40;37.46;100088.72;5538774;26;20039;-63
2024/04/08 10:06:11;;;;;;;4.82;0.80;;;;;;;21.98;37.66;100078.09;5538409;26;19998;-64
2024/04/08 10:08:38;;;;;;;3.08;1.00;;;;;;;21.93;37.93;100090.78;5538324;26;19997;-64
2024/04/08 10:11:04;;;;;;;4.18;1.38;;;;;;;21.73;38.07;100082.22;5538619;26;20012;-64
2024/04/08 10:13:29;;;;;;;2.63;0.98;;;;;;;21.70;38.65;100089.47;5538300;26;19997;-63
2024/04/08 10:16:06;;;;;;;4.68;1.45;;;;;;;21.81;38.53;100080.94;5538101;26;20005;-64
2024/04/08 10:18:32;;;;;;;6.90;1.75;;;;;;;22.13;38.77;100096.59;5561298;25;19997;-63
2024/04/08 10:20:57;;;;;;;6.35;1.70;;;;;;;22.37;38.22;100096.00;5501202;26;19998;-62
2024/04/08 10:23:22;;;;;;;2.67;1.65;;;;;;;22.58;37.87;100106.16;5501085;26;20511;-64
2024/04/08 10:25:48;;;;;;;6.10;1.35;;;;;;;22.67;38.24;100099.47;5501215;26;20002;-64
2024/04/08 10:28:20;;;;;;;3.58;1.27;;;;;;;23.19;37.48;100115.53;5501554;26;20009;-64
2024/04/08 10:30:49;;;;;;;8.07;1.65;;;;;;;23.26;36.06;100100.91;5498967;26;20009;-64
2024/04/08 10:33:15;;;;;;;2.47;1.05;;;;;;;23.09;36.40;100115.28;5501040;26;19998;-63
2024/04/08 10:35:40;;;;;;;2.97;1.38;;;;;;;23.02;37.46;100118.34;5499365;26;20043;-63
2024/04/08 10:38:08;;;;;;;3.08;1.63;;;;;;;23.50;37.28;100118.78;5501144;26;19995;-64
2024/04/08 10:40:33;;;;;;;4.43;1.00;;;;;;;23.91;37.12;100118.69;5501153;26;20009;-64
2024/04/08 10:42:59;;;;;;;5.63;1.42;;;;;;;23.99;36.68;100111.88;5501360;26;20002;-64
2024/04/08 10:45:25;;;;;;;3.13;1.20;;;;;;;24.34;36.83;100120.16;5498766;26;20318;-63
2024/04/08 10:48:00;;;;;;;7.22;1.80;;;;;;;24.57;36.70;100118.50;5500127;26;20429;-64
2024/04/08 10:50:30;;;;;;;6.90;2.08;;;;;;;24.90;35.23;100123.28;5501044;26;20079;-63
2024/04/08 10:52:55;;;;;;;5.18;1.38;;;;;;;24.45;34.30;100106.97;5500827;26;20009;-62
2024/04/08 10:55:21;;;;;;;4.15;1.17;;;;;;;24.08;35.78;100106.91;5500691;26;19998;-63
2024/04/08 10:57:47;;;;;;;1.60;1.05;;;;;;;24.16;34.29;100109.91;5500746;26;20012;-63
2024/04/08 11:00:12;;;;;;;2.78;1.42;;;;;;;23.90;33.88;100104.59;5500621;26;20009;-63
2024/04/08 11:02:39;;;;;;;3.15;1.63;;;;;;;23.38;35.46;100105.44;5500908;26;20009;-63
2024/04/08 11:05:05;;;;;;;2.17;1.30;;;;;;;23.35;35.18;100099.47;5500676;26;20112;-63
2024/04/08 11:07:37;;;;;;;2.22;1.15;;;;;;;23.24;35.14;100105.47;5501000;26;20002;-63
2024/04/08 11:10:10;;;;;;;4.07;1.48;;;;;;;23.26;35.25;100091.19;5500741;26;20019;-64
2024/04/08 11:12:36;;;;;;;4.78;1.48;;;;;;;23.32;34.60;100097.03;5500799;26;20049;-64
2024/04/08 11:15:03;;;;;;;2.20;1.00;;;;;;;23.07;35.97;100101.31;5499383;26;20343;-63
2024/04/08 11:17:28;;;;;;;5.75;1.60;;;;;;;23.07;35.70;100099.50;5507353;26;20009;-63
2024/04/08 11:19:55;;;;;;;2.05;1.00;;;;;;;23.16;36.26;100108.66;5505179;26;20360;-66
2024/04/08 11:22:21;;;;;;;2.03;1.00;;;;;;;23.31;35.96;100119.16;5537516;26;20446;-66
2024/04/08 11:24:46;;;;;;;2.35;1.00;;;;;;;23.02;36.72;100120.13;5537075;26;20013;-64
2024/04/08 11:27:12;;;;;;;9.10;1.30;;;;;;;22.09;37.11;100132.97;5537012;26;19997;-65
2024/04/08 11:29:41;;;;;;;2.65;1.20;;;;;;;20.87;38.52;100137.31;5504290;26;20025;-66